sensor_id;sensor_type;location;lat;lon;timestamp;pressure;altitude;pressure_sealevel;temperature;humidity
27984;BME280;15317;50.360;8.726;2024-01-30T00:02:13;100880.38;;;0.72;100.00
27984;BME280;15317;50.360;8.726;2024-01-30T00:07:17;100880.38;;;0.72;100.00
27984;BME280;15317;50.360;8.726;2024-01-30T00:12:22;100882.38;;;0.67;100.00
27984;BME280;15317;50.360;8.726;2024-01-30T00:17:25;100880.44;;;1.12;100.00
27984;BME280;15317;50.360;8.726;2024-01-30T00:22:28;100877.88;;;1.50;100.00
27984;BME280;15317;50.360;8.726;2024-01-30T00:27:33;100882.00;;;1.77;100.00
27984;BME280;15317;50.360;8.726;2024-01-30T00:32:37;100876.56;;;1.97;100.00
27984;BME280;15317;50.360;8.726;2024-01-30T00:37:40;100871.56;;;2.09;100.00
27984;BME280;15317;50.360;8.726;2024-01-30T00:42:45;100868.31;;;2.02;100.00
27984;BME280;15317;50.360;8.726;2024-01-30T00:47:48;100863.53;;;2.09;100.00
27984;BME280;15317;50.360;8.726;2024-01-30T00:52:51;100862.06;;;2.20;100.00
27984;BME280;15317;50.360;8.726;2024-01-30T00:57:56;100859.25;;;2.23;100.00
27984;BME280;15317;50.360;8.726;2024-01-30T01:02:59;100854.25;;;2.16;100.00
27984;BME280;15317;50.360;8.726;2024-01-30T01:08:03;100856.72;;;2.02;100.00
27984;BME280;15317;50.360;8.726;2024-01-30T01:13:07;100863.09;;;2.18;100.00
27984;BME280;15317;50.360;8.726;2024-01-30T01:18:10;100856.50;;;2.25;100.00
27984;BME280;15317;50.360;8.726;2024-01-30T01:23:13;100858.22;;;2.26;100.00
27984;BME280;15317;50.360;8.726;2024-01-30T01:28:18;100854.25;;;2.16;100.00
27984;BME280;15317;50.360;8.726;2024-01-30T01:33:21;100858.28;;;2.06;100.00
27984;BME280;15317;50.360;8.726;2024-01-30T01:38:25;100846.72;;;1.86;100.00
27984;BME280;15317;50.360;8.726;2024-01-30T01:43:29;100847.06;;;1.60;100.00
27984;BME280;15317;50.360;8.726;2024-01-30T01:48:32;100846.81;;;1.46;100.00
27984;BME280;15317;50.360;8.726;2024-01-30T01:53:36;100840.59;;;1.45;100.00
27984;BME280;15317;50.360;8.726;2024-01-30T01:58:41;100836.56;;;1.55;100.00
27984;BME280;15317;50.360;8.726;2024-01-30T02:03:45;100844.72;;;1.52;100.00
27984;BME280;15317;50.360;8.726;2024-01-30T02:08:48;100841.69;;;1.60;100.00
27984;BME280;15317;50.360;8.726;2024-01-30T02:13:53;100847.00;;;1.62;100.00
27984;BME280;15317;50.360;8.726;2024-01-30T02:18:56;100845.94;;;1.45;100.00
27984;BME280;15317;50.360;8.726;2024-01-30T02:24:01;100840.44;;;1.30;100.00
27984;BME280;15317;50.360;8.726;2024-01-30T02:29:05;100837.25;;;1.40;100.00
27984;BME280;15317;50.360;8.726;2024-01-30T02:34:08;100834.81;;;1.36;100.00
27984;BME280;15317;50.360;8.726;2024-01-30T02:39:13;100836.50;;;1.37;100.00
27984;BME280;15317;50.360;8.726;2024-01-30T02:44:18;100834.97;;;1.31;100.00
27984;BME280;15317;50.360;8.726;2024-01-30T02:49:21;100833.59;;;1.23;100.00
27984;BME280;15317;50.360;8.726;2024-01-30T02:54:25;100829.81;;;1.08;100.00
27984;BME280;15317;50.360;8.726;2024-01-30T02:59:29;100828.78;;;0.90;100.00
27984;BME280;15317;50.360;8.726;2024-01-30T03:04:35;100835.13;;;0.67;100.00
27984;BME280;15317;50.360;8.726;2024-01-30T03:09:41;100824.19;;;0.52;100.00
27984;BME280;15317;50.360;8.726;2024-01-30T03:14:44;100831.06;;;0.37;100.00
27984;BME280;15317;50.360;8.726;2024-01-30T03:19:47;100825.19;;;0.27;100.00
27984;BME280;15317;50.360;8.726;2024-01-30T03:24:52;100831.66;;;0.44;100.00
27984;BME280;15317;50.360;8.726;2024-01-30T03:29:55;100832.28;;;0.50;100.00
27984;BME280;15317;50.360;8.726;2024-01-30T03:34:58;100833.03;;;0.54;100.00
27984;BME280;15317;50.360;8.726;2024-01-30T03:40:04;100830.16;;;0.58;100.00
27984;BME280;15317;50.360;8.726;2024-01-30T03:45:08;100835.63;;;0.55;100.00
27984;BME280;15317;50.360;8.726;2024-01-30T03:50:11;100827.88;;;0.49;100.00
27984;BME280;15317;50.360;8.726;2024-01-30T03:55:16;100827.19;;;0.44;100.00
27984;BME280;15317;50.360;8.726;2024-01-30T04:00:19;100818.25;;;0.45;100.00
27984;BME280;15317;50.360;8.726;2024-01-30T04:05:22;100815.50;;;0.47;100.00
27984;BME280;15317;50.360;8.726;2024-01-30T04:10:27;100823.09;;;0.35;100.00
27984;BME280;15317;50.360;8.726;2024-01-30T04:15:30;100816.50;;;0.22;100.00
27984;BME280;15317;50.360;8.726;2024-01-30T04:20:34;100810.69;;;0.13;100.00
27984;BME280;15317;50.360;8.726;2024-01-30T04:25:39;100815.50;;;0.03;100.00
27984;BME280;15317;50.360;8.726;2024-01-30T04:30:42;100816.69;;;-0.04;100.00
27984;BME280;15317;50.360;8.726;2024-01-30T04:35:45;100817.38;;;0.01;100.00
27984;BME280;15317;50.360;8.726;2024-01-30T04:40:50;100821.09;;;-0.03;100.00
27984;BME280;15317;50.360;8.726;2024-01-30T04:45:53;100813.28;;;-0.08;100.00
27984;BME280;15317;50.360;8.726;2024-01-30T04:50:56;100817.56;;;-0.04;100.00
27984;BME280;15317;50.360;8.726;2024-01-30T04:56:00;100821.22;;;-0.06;100.00
27984;BME280;15317;50.360;8.726;2024-01-30T05:01:03;100824.34;;;0.05;100.00
27984;BME280;15317;50.360;8.726;2024-01-30T05:06:07;100813.66;;;0.05;100.00
27984;BME280;15317;50.360;8.726;2024-01-30T05:11:11;100820.19;;;0.20;100.00
27984;BME280;15317;50.360;8.726;2024-01-30T05:16:15;100828.94;;;0.23;100.00
27984;BME280;15317;50.360;8.726;2024-01-30T05:21:18;100822.78;;;0.21;100.00
27984;BME280;15317;50.360;8.726;2024-01-30T05:26:22;100828.06;;;0.23;100.00
27984;BME280;15317;50.360;8.726;2024-01-30T05:31:25;100827.19;;;0.22;100.00
27984;BME280;15317;50.360;8.726;2024-01-30T05:36:29;100832.69;;;0.19;100.00
27984;BME280;15317;50.360;8.726;2024-01-30T05:41:33;100829.75;;;0.25;100.00
27984;BME280;15317;50.360;8.726;2024-01-30T05:46:37;100843.22;;;0.22;100.00
27984;BME280;15317;50.360;8.726;2024-01-30T05:51:40;100849.59;;;0.20;100.00
27984;BME280;15317;50.360;8.726;2024-01-30T05:56:44;100854.06;;;0.19;100.00
27984;BME280;15317;50.360;8.726;2024-01-30T06:01:48;100849.34;;;0.26;100.00
27984;BME280;15317;50.360;8.726;2024-01-30T06:06:51;100846.22;;;0.36;100.00
27984;BME280;15317;50.360;8.726;2024-01-30T06:11:56;100847.44;;;0.50;100.00
27984;BME280;15317;50.360;8.726;2024-01-30T06:16:59;100838.66;;;0.48;100.00
27984;BME280;15317;50.360;8.726;2024-01-30T06:22:03;100838.38;;;0.54;100.00
27984;BME280;15317;50.360;8.726;2024-01-30T06:27:08;100841.72;;;0.59;100.00
27984;BME280;15317;50.360;8.726;2024-01-30T06:32:11;100839.97;;;0.58;100.00
27984;BME280;15317;50.360;8.726;2024-01-30T06:37:14;100840.25;;;0.52;100.00
27984;BME280;15317;50.360;8.726;2024-01-30T06:42:19;100835.75;;;0.52;100.00
27984;BME280;15317;50.360;8.726;2024-01-30T06:47:22;100832.88;;;0.57;100.00
27984;BME280;15317;50.360;8.726;2024-01-30T06:52:25;100837.69;;;0.49;100.00
27984;BME280;15317;50.360;8.726;2024-01-30T06:57:30;100837.81;;;0.46;100.00
27984;BME280;15317;50.360;8.726;2024-01-30T07:02:33;100833.41;;;0.45;100.00
27984;BME280;15317;50.360;8.726;2024-01-30T07:07:36;100839.00;;;0.38;100.00
27984;BME280;15317;50.360;8.726;2024-01-30T07:12:41;100841.88;;;0.34;100.00
27984;BME280;15317;50.360;8.726;2024-01-30T07:17:44;100841.88;;;0.34;100.00
27984;BME280;15317;50.360;8.726;2024-01-30T07:22:47;100840.44;;;0.25;100.00
27984;BME280;15317;50.360;8.726;2024-01-30T07:27:52;100839.38;;;0.29;100.00
27984;BME280;15317;50.360;8.726;2024-01-30T07:32:55;100839.13;;;0.35;100.00
27984;BME280;15317;50.360;8.726;2024-01-30T07:37:58;100844.63;;;0.32;100.00
27984;BME280;15317;50.360;8.726;2024-01-30T07:43:03;100842.56;;;0.39;100.00
27984;BME280;15317;50.360;8.726;2024-01-30T07:48:07;100846.56;;;0.49;100.00
27984;BME280;15317;50.360;8.726;2024-01-30T07:53:10;100852.06;;;0.46;100.00
27984;BME280;15317;50.360;8.726;2024-01-30T07:58:14;100844.66;;;0.53;100.00
27984;BME280;15317;50.360;8.726;2024-01-30T08:03:18;100850.56;;;0.61;100.00
27984;BME280;15317;50.360;8.726;2024-01-30T08:08:21;100852.72;;;0.73;100.00
27984;BME280;15317;50.360;8.726;2024-01-30T08:13:25;100846.28;;;0.77;100.00
27984;BME280;15317;50.360;8.726;2024-01-30T08:18:28;100851.72;;;0.96;100.00
27984;BME280;15317;50.360;8.726;2024-01-30T08:23:31;100858.75;;;1.18;100.00
27984;BME280;15317;50.360;8.726;2024-01-30T08:28:36;100862.84;;;1.27;100.00
27984;BME280;15317;50.360;8.726;2024-01-30T08:33:39;100861.88;;;1.48;100.00
27984;BME280;15317;50.360;8.726;2024-01-30T08:38:45;100864.00;;;1.61;100.00
27984;BME280;15317;50.360;8.726;2024-01-30T08:43:49;100862.38;;;1.77;100.00
27984;BME280;15317;50.360;8.726;2024-01-30T08:48:52;100850.31;;;1.85;100.00
27984;BME280;15317;50.360;8.726;2024-01-30T08:53:56;100862.66;;;2.08;100.00
27984;BME280;15317;50.360;8.726;2024-01-30T08:59:00;100863.63;;;2.43;100.00
27984;BME280;15317;50.360;8.726;2024-01-30T09:04:04;100874.75;;;2.71;100.00
27984;BME280;15317;50.360;8.726;2024-01-30T09:09:07;100867.41;;;2.75;100.00
27984;BME280;15317;50.360;8.726;2024-01-30T09:14:12;100875.06;;;2.83;100.00
27984;BME280;15317;50.360;8.726;2024-01-30T09:19:16;100866.53;;;2.74;100.00
27984;BME280;15317;50.360;8.726;2024-01-30T09:24:19;100864.16;;;2.68;100.00
27984;BME280;15317;50.360;8.726;2024-01-30T09:29:23;100865.13;;;2.85;100.00
27984;BME280;15317;50.360;8.726;2024-01-30T09:34:27;100875.63;;;2.89;100.00
27984;BME280;15317;50.360;8.726;2024-01-30T09:39:30;100862.63;;;2.99;100.00
27984;BME280;15317;50.360;8.726;2024-01-30T09:44:35;100866.63;;;3.07;100.00
27984;BME280;15317;50.360;8.726;2024-01-30T09:49:39;100890.50;;;3.13;100.00
27984;BME280;15317;50.360;8.726;2024-01-30T09:54:45;100882.44;;;3.13;100.00
27984;BME280;15317;50.360;8.726;2024-01-30T09:59:50;100877.91;;;3.14;100.00
27984;BME280;15317;50.360;8.726;2024-01-30T10:04:56;100879.59;;;3.34;100.00
27984;BME280;15317;50.360;8.726;2024-01-30T10:10:00;100880.16;;;3.56;100.00
27984;BME280;15317;50.360;8.726;2024-01-30T10:15:07;100863.09;;;3.90;100.00
27984;BME280;15317;50.360;8.726;2024-01-30T10:20:11;100847.16;;;4.03;100.00
27984;BME280;15317;50.360;8.726;2024-01-30T10:25:15;100848.69;;;3.91;100.00
27984;BME280;15317;50.360;8.726;2024-01-30T10:30:20;100845.34;;;3.87;100.00
27984;BME280;15317;50.360;8.726;2024-01-30T10:35:23;100843.16;;;3.94;100.00
27984;BME280;15317;50.360;8.726;2024-01-30T10:40:28;100835.63;;;4.01;100.00
27984;BME280;15317;50.360;8.726;2024-01-30T10:45:35;100840.75;;;4.05;100.00
27984;BME280;15317;50.360;8.726;2024-01-30T10:50:40;100842.41;;;4.08;100.00
27984;BME280;15317;50.360;8.726;2024-01-30T10:55:55;100841.09;;;3.99;100.00
27984;BME280;15317;50.360;8.726;2024-01-30T11:01:00;100834.66;;;4.17;100.00
27984;BME280;15317;50.360;8.726;2024-01-30T11:06:04;100840.56;;;4.40;100.00
27984;BME280;15317;50.360;8.726;2024-01-30T11:11:09;100843.50;;;4.51;100.00
27984;BME280;15317;50.360;8.726;2024-01-30T11:16:17;100845.38;;;4.64;100.00
27984;BME280;15317;50.360;8.726;2024-01-30T11:21:20;100846.38;;;4.63;100.00
27984;BME280;15317;50.360;8.726;2024-01-30T11:26:27;100838.97;;;4.67;100.00
27984;BME280;15317;50.360;8.726;2024-01-30T11:31:32;100838.97;;;4.67;100.00
27984;BME280;15317;50.360;8.726;2024-01-30T11:36:36;100825.59;;;4.65;100.00
27984;BME280;15317;50.360;8.726;2024-01-30T11:41:41;100828.84;;;4.86;100.00
27984;BME280;15317;50.360;8.726;2024-01-30T11:46:45;100826.69;;;5.07;100.00
27984;BME280;15317;50.360;8.726;2024-01-30T11:51:48;100823.88;;;5.38;100.00
27984;BME280;15317;50.360;8.726;2024-01-30T11:56:52;100815.91;;;5.65;100.00
27984;BME280;15317;50.360;8.726;2024-01-30T12:01:56;100804.75;;;5.71;100.00
27984;BME280;15317;50.360;8.726;2024-01-30T12:07:00;100806.84;;;5.80;100.00
27984;BME280;15317;50.360;8.726;2024-01-30T12:12:07;100805.69;;;5.84;100.00
27984;BME280;15317;50.360;8.726;2024-01-30T12:17:26;100804.81;;;6.12;100.00
27984;BME280;15317;50.360;8.726;2024-01-30T12:22:29;100798.53;;;6.26;100.00
27984;BME280;15317;50.360;8.726;2024-01-30T12:27:32;100793.44;;;6.48;100.00
27984;BME280;15317;50.360;8.726;2024-01-30T12:32:40;100791.78;;;6.72;100.00
27984;BME280;15317;50.360;8.726;2024-01-30T12:37:45;100795.81;;;6.80;100.00
27984;BME280;15317;50.360;8.726;2024-01-30T12:42:48;100788.72;;;6.64;100.00
27984;BME280;15317;50.360;8.726;2024-01-30T12:47:53;100782.28;;;6.67;100.00
27984;BME280;15317;50.360;8.726;2024-01-30T12:52:57;100777.94;;;6.64;100.00
27984;BME280;15317;50.360;8.726;2024-01-30T12:58:01;100769.03;;;6.50;100.00
27984;BME280;15317;50.360;8.726;2024-01-30T13:03:06;100767.84;;;6.41;100.00
27984;BME280;15317;50.360;8.726;2024-01-30T13:08:10;100776.13;;;6.38;100.00
27984;BME280;15317;50.360;8.726;2024-01-30T13:13:13;100774.19;;;6.40;100.00
27984;BME280;15317;50.360;8.726;2024-01-30T13:18:23;100771.19;;;6.45;100.00
27984;BME280;15317;50.360;8.726;2024-01-30T13:23:26;100771.84;;;6.48;100.00
27984;BME280;15317;50.360;8.726;2024-01-30T13:28:29;100763.16;;;6.43;100.00
27984;BME280;15317;50.360;8.726;2024-01-30T13:33:34;100755.25;;;6.54;100.00
27984;BME280;15317;50.360;8.726;2024-01-30T13:38:37;100756.56;;;6.61;100.00
27984;BME280;15317;50.360;8.726;2024-01-30T13:43:41;100770.16;;;6.60;100.00
27984;BME280;15317;50.360;8.726;2024-01-30T13:48:45;100770.38;;;6.69;100.00
27984;BME280;15317;50.360;8.726;2024-01-30T13:53:49;100780.97;;;6.72;100.00
27984;BME280;15317;50.360;8.726;2024-01-30T13:58:52;100798.16;;;6.71;100.00
27984;BME280;15317;50.360;8.726;2024-01-30T14:03:59;100787.03;;;6.76;100.00
27984;BME280;15317;50.360;8.726;2024-01-30T14:09:02;100774.97;;;6.82;100.00
27984;BME280;15317;50.360;8.726;2024-01-30T14:14:09;100789.63;;;6.78;100.00
27984;BME280;15317;50.360;8.726;2024-01-30T14:19:14;100782.28;;;6.80;100.00
27984;BME280;15317;50.360;8.726;2024-01-30T14:24:18;100789.00;;;6.74;100.00
27984;BME280;15317;50.360;8.726;2024-01-30T14:29:21;100787.25;;;6.73;100.00
27984;BME280;15317;50.360;8.726;2024-01-30T14:34:25;100790.38;;;6.67;100.00
27984;BME280;15317;50.360;8.726;2024-01-30T14:39:29;100791.06;;;6.56;100.00
27984;BME280;15317;50.360;8.726;2024-01-30T14:44:32;100794.53;;;6.58;100.00
27984;BME280;15317;50.360;8.726;2024-01-30T14:49:36;100802.69;;;6.44;100.00
27984;BME280;15317;50.360;8.726;2024-01-30T14:54:40;100813.50;;;6.44;100.00
27984;BME280;15317;50.360;8.726;2024-01-30T14:59:43;100803.09;;;6.38;100.00
27984;BME280;15317;50.360;8.726;2024-01-30T15:04:47;100804.16;;;6.35;100.00
27984;BME280;15317;50.360;8.726;2024-01-30T15:09:51;100798.31;;;6.29;100.00
27984;BME280;15317;50.360;8.726;2024-01-30T15:14:54;100811.22;;;6.24;100.00
27984;BME280;15317;50.360;8.726;2024-01-30T15:19:58;100816.16;;;6.17;100.00
27984;BME280;15317;50.360;8.726;2024-01-30T15:25:03;100815.69;;;6.11;100.00
27984;BME280;15317;50.360;8.726;2024-01-30T15:30:07;100807.44;;;6.14;100.00
27984;BME280;15317;50.360;8.726;2024-01-30T15:35:12;100813.88;;;6.11;100.00
27984;BME280;15317;50.360;8.726;2024-01-30T15:40:15;100816.75;;;6.08;100.00
27984;BME280;15317;50.360;8.726;2024-01-30T15:45:18;100824.38;;;6.02;100.00
27984;BME280;15317;50.360;8.726;2024-01-30T15:50:23;100823.00;;;6.09;100.00
27984;BME280;15317;50.360;8.726;2024-01-30T15:55:26;100831.69;;;6.14;100.00
27984;BME280;15317;50.360;8.726;2024-01-30T16:00:30;100828.22;;;6.12;100.00
27984;BME280;15317;50.360;8.726;2024-01-30T16:05:34;100840.06;;;6.09;100.00
27984;BME280;15317;50.360;8.726;2024-01-30T16:10:37;100837.09;;;6.14;100.00
27984;BME280;15317;50.360;8.726;2024-01-30T16:15:41;100831.22;;;6.07;100.00
27984;BME280;15317;50.360;8.726;2024-01-30T16:20:46;100844.03;;;6.04;100.00
27984;BME280;15317;50.360;8.726;2024-01-30T16:25:50;100844.13;;;6.02;100.00
27984;BME280;15317;50.360;8.726;2024-01-30T16:30:53;100834.22;;;5.88;100.00
27984;BME280;15317;50.360;8.726;2024-01-30T16:35:57;100852.69;;;5.94;100.00
27984;BME280;15317;50.360;8.726;2024-01-30T16:41:00;100843.34;;;5.86;100.00
27984;BME280;15317;50.360;8.726;2024-01-30T16:46:03;100833.34;;;5.88;100.00
27984;BME280;15317;50.360;8.726;2024-01-30T16:51:08;100857.13;;;5.95;100.00
27984;BME280;15317;50.360;8.726;2024-01-30T16:56:11;100860.41;;;5.86;100.00
27984;BME280;15317;50.360;8.726;2024-01-30T17:01:15;100867.34;;;5.90;100.00
27984;BME280;15317;50.360;8.726;2024-01-30T17:06:20;100875.00;;;5.82;100.00
27984;BME280;15317;50.360;8.726;2024-01-30T17:11:23;100873.66;;;5.75;100.00
27984;BME280;15317;50.360;8.726;2024-01-30T17:16:26;100888.69;;;5.65;100.00
27984;BME280;15317;50.360;8.726;2024-01-30T17:21:31;100895.00;;;5.50;100.00
27984;BME280;15317;50.360;8.726;2024-01-30T17:26:36;100907.91;;;5.45;100.00
27984;BME280;15317;50.360;8.726;2024-01-30T17:31:45;100909.31;;;5.36;100.00
27984;BME280;15317;50.360;8.726;2024-01-30T17:36:51;100917.59;;;5.33;100.00
27984;BME280;15317;50.360;8.726;2024-01-30T17:41:54;100937.31;;;5.34;100.00
27984;BME280;15317;50.360;8.726;2024-01-30T17:46:57;100945.16;;;5.23;100.00
27984;BME280;15317;50.360;8.726;2024-01-30T17:52:03;100937.25;;;5.20;100.00
27984;BME280;15317;50.360;8.726;2024-01-30T17:57:06;100947.63;;;5.11;100.00
27984;BME280;15317;50.360;8.726;2024-01-30T18:02:09;100945.91;;;5.10;100.00
27984;BME280;15317;50.360;8.726;2024-01-30T18:07:15;100957.44;;;5.12;100.00
27984;BME280;15317;50.360;8.726;2024-01-30T18:12:18;100967.59;;;5.07;100.00
27984;BME280;15317;50.360;8.726;2024-01-30T18:17:22;100966.06;;;5.03;100.00
27984;BME280;15317;50.360;8.726;2024-01-30T18:22:26;100978.91;;;4.98;100.00
27984;BME280;15317;50.360;8.726;2024-01-30T18:27:29;100972.16;;;4.91;100.00
27984;BME280;15317;50.360;8.726;2024-01-30T18:32:32;100970.94;;;4.81;100.00
27984;BME280;15317;50.360;8.726;2024-01-30T18:37:37;100973.19;;;4.73;100.00
27984;BME280;15317;50.360;8.726;2024-01-30T18:42:40;100974.75;;;4.61;100.00
27984;BME280;15317;50.360;8.726;2024-01-30T18:47:43;100968.25;;;4.50;100.00
27984;BME280;15317;50.360;8.726;2024-01-30T18:52:50;100984.88;;;4.41;100.00
27984;BME280;15317;50.360;8.726;2024-01-30T18:57:53;100996.94;;;4.33;100.00
27984;BME280;15317;50.360;8.726;2024-01-30T19:02:57;100990.16;;;4.26;100.00
27984;BME280;15317;50.360;8.726;2024-01-30T19:08:01;100992.38;;;4.18;100.00
27984;BME280;15317;50.360;8.726;2024-01-30T19:13:04;100980.75;;;4.18;100.00
27984;BME280;15317;50.360;8.726;2024-01-30T19:18:08;100997.06;;;4.15;100.00
27984;BME280;15317;50.360;8.726;2024-01-30T19:23:15;100996.34;;;4.11;100.00
27984;BME280;15317;50.360;8.726;2024-01-30T19:28:19;100996.34;;;4.11;100.00
27984;BME280;15317;50.360;8.726;2024-01-30T19:33:22;101012.00;;;4.20;100.00
27984;BME280;15317;50.360;8.726;2024-01-30T19:38:27;101018.59;;;4.30;100.00
27984;BME280;15317;50.360;8.726;2024-01-30T19:43:30;101018.13;;;4.40;100.00
27984;BME280;15317;50.360;8.726;2024-01-30T19:48:33;101015.88;;;4.48;100.00
27984;BME280;15317;50.360;8.726;2024-01-30T19:53:38;101010.84;;;4.57;100.00
27984;BME280;15317;50.360;8.726;2024-01-30T19:58:41;101015.38;;;4.57;100.00
27984;BME280;15317;50.360;8.726;2024-01-30T20:03:44;101015.19;;;4.60;100.00
27984;BME280;15317;50.360;8.726;2024-01-30T20:08:48;101013.84;;;4.68;100.00
27984;BME280;15317;50.360;8.726;2024-01-30T20:13:51;101021.47;;;4.76;100.00
27984;BME280;15317;50.360;8.726;2024-01-30T20:18:55;101024.78;;;4.81;100.00
27984;BME280;15317;50.360;8.726;2024-01-30T20:24:00;101033.66;;;4.83;100.00
27984;BME280;15317;50.360;8.726;2024-01-30T20:29:03;101033.38;;;4.88;100.00
27984;BME280;15317;50.360;8.726;2024-01-30T20:34:06;101038.69;;;4.89;100.00
27984;BME280;15317;50.360;8.726;2024-01-30T20:39:11;101043.88;;;4.92;100.00
27984;BME280;15317;50.360;8.726;2024-01-30T20:44:15;101032.06;;;4.95;100.00
27984;BME280;15317;50.360;8.726;2024-01-30T20:49:20;101047.00;;;5.00;100.00
27984;BME280;15317;50.360;8.726;2024-01-30T20:54:24;101059.03;;;5.10;100.00
27984;BME280;15317;50.360;8.726;2024-01-30T20:59:27;101064.84;;;5.19;100.00
27984;BME280;15317;50.360;8.726;2024-01-30T21:04:31;101063.78;;;5.21;100.00
27984;BME280;15317;50.360;8.726;2024-01-30T21:09:35;101063.34;;;5.29;100.00
27984;BME280;15317;50.360;8.726;2024-01-30T21:14:39;101062.31;;;5.31;100.00
27984;BME280;15317;50.360;8.726;2024-01-30T21:19:42;101064.72;;;5.36;100.00
27984;BME280;15317;50.360;8.726;2024-01-30T21:24:46;101069.97;;;5.39;100.00
27984;BME280;15317;50.360;8.726;2024-01-30T21:29:50;101087.16;;;5.36;100.00
27984;BME280;15317;50.360;8.726;2024-01-30T21:34:53;101100.34;;;5.41;100.00
27984;BME280;15317;50.360;8.726;2024-01-30T21:39:57;101107.56;;;5.40;100.00
27984;BME280;15317;50.360;8.726;2024-01-30T21:45:00;101101.41;;;5.38;100.00
27984;BME280;15317;50.360;8.726;2024-01-30T21:50:04;101095.75;;;5.43;100.00
27984;BME280;15317;50.360;8.726;2024-01-30T21:55:09;101095.91;;;5.40;100.00
27984;BME280;15317;50.360;8.726;2024-01-30T22:00:13;101105.94;;;5.38;100.00
27984;BME280;15317;50.360;8.726;2024-01-30T22:05:17;101094.38;;;5.36;100.00
27984;BME280;15317;50.360;8.726;2024-01-30T22:10:22;101102.53;;;5.34;100.00
27984;BME280;15317;50.360;8.726;2024-01-30T22:15:26;101108.00;;;5.33;100.00
27984;BME280;15317;50.360;8.726;2024-01-30T22:20:31;101109.75;;;5.34;100.00
27984;BME280;15317;50.360;8.726;2024-01-30T22:25:35;101112.09;;;5.40;100.00
27984;BME280;15317;50.360;8.726;2024-01-30T22:30:39;101116.72;;;5.38;100.00
27984;BME280;15317;50.360;8.726;2024-01-30T22:35:42;101111.22;;;5.39;100.00
27984;BME280;15317;50.360;8.726;2024-01-30T22:40:46;101116.53;;;5.41;100.00
27984;BME280;15317;50.360;8.726;2024-01-30T22:45:50;101110.25;;;5.40;100.00
27984;BME280;15317;50.360;8.726;2024-01-30T22:50:53;101111.13;;;5.41;100.00
27984;BME280;15317;50.360;8.726;2024-01-30T22:55:57;101114.63;;;5.43;100.00
27984;BME280;15317;50.360;8.726;2024-01-30T23:01:00;101124.53;;;5.42;100.00
27984;BME280;15317;50.360;8.726;2024-01-30T23:06:04;101132.53;;;5.44;100.00
27984;BME280;15317;50.360;8.726;2024-01-30T23:11:11;101138.53;;;5.49;100.00
27984;BME280;15317;50.360;8.726;2024-01-30T23:16:15;101142.00;;;5.51;100.00
27984;BME280;15317;50.360;8.726;2024-01-30T23:21:18;101152.88;;;5.49;100.00
27984;BME280;15317;50.360;8.726;2024-01-30T23:26:22;101156.44;;;5.50;100.00
27984;BME280;15317;50.360;8.726;2024-01-30T23:31:26;101146.59;;;5.49;100.00
27984;BME280;15317;50.360;8.726;2024-01-30T23:36:29;101156.34;;;5.51;100.00
27984;BME280;15317;50.360;8.726;2024-01-30T23:41:35;101157.81;;;5.57;100.00
27984;BME280;15317;50.360;8.726;2024-01-30T23:46:38;101166.00;;;5.71;100.00
27984;BME280;15317;50.360;8.726;2024-01-30T23:51:42;101163.09;;;5.74;100.00
27984;BME280;15317;50.360;8.726;2024-01-30T23:56:46;101160.28;;;5.93;100.00
